Fernie, Canada
Current Conditions -  °F | °C
As of 10:00 PM on Saturday 25 Oct 2014 (Local Time) from CYXC Reporting Station
Moderate Rain Moderate Rain  
Wind Chill: 37°   Ceiling: 4500
Heat Index: 43°   Visibility: 5mi
Dew Point: 41°   Wind: 10mph
Humidity: 93%   Direction: 130°SE
Pressure: 29.56"   Gusts: NA
Location:  49.51°N, 115.06°W
Report Text: CYXC 260400Z 13009KT 5SM RA BR FEW015 SCT025 OVC045 06/05 A2956 RMK SF1SC2SC5 PRESFR SLP028 DENSITY ALT 3100FT
Loading
Personal Weather Stations






























Interactive Weather Map New forecast layout! Learn more

10-Day Weather Forecast

Advertisements
Track Severe Weather on mobile